createdAt,value
2019-04-25T00:02:07.925Z,7.70
2019-04-25T00:04:38.737Z,8.30
2019-04-25T00:07:08.989Z,8.25
2019-04-25T00:09:49.363Z,7.87
2019-04-25T00:12:19.730Z,7.65
2019-04-25T00:14:49.511Z,8.65
2019-04-25T00:17:19.503Z,9.23
2019-04-25T00:19:49.169Z,9.43
2019-04-25T00:22:21.670Z,8.43
2019-04-25T00:24:58.627Z,8.33
2019-04-25T00:27:28.843Z,7.60
2019-04-25T00:29:58.509Z,8.48
2019-04-25T00:32:28.161Z,9.53
2019-04-25T00:34:57.779Z,8.88
2019-04-25T00:37:27.444Z,9.23
2019-04-25T00:39:57.069Z,8.65
2019-04-25T00:42:26.713Z,9.60
2019-04-25T00:44:56.338Z,9.20
2019-04-25T00:47:25.994Z,9.25
2019-04-25T00:49:55.615Z,9.93
2019-04-25T00:52:25.268Z,8.90
2019-04-25T00:54:54.902Z,8.75
2019-04-25T00:57:24.926Z,8.78
2019-04-25T00:59:56.188Z,8.60
2019-04-25T01:02:27.481Z,8.95
2019-04-25T01:04:57.095Z,9.10
2019-04-25T01:07:26.850Z,9.65
2019-04-25T01:09:56.479Z,9.68
2019-04-25T01:12:26.127Z,9.38
2019-04-25T01:14:55.747Z,8.93
2019-04-25T01:17:26.077Z,9.38
2019-04-25T01:19:57.938Z,9.28
2019-04-25T01:22:27.357Z,9.53
2019-04-25T01:24:57.009Z,8.70
2019-04-25T01:27:26.731Z,9.48
2019-04-25T01:29:56.463Z,9.83
2019-04-25T01:32:27.715Z,9.95
2019-04-25T01:35:05.026Z,8.70
2019-04-25T01:37:36.291Z,9.80
2019-04-25T01:40:24.240Z,8.98
2019-04-25T01:43:08.155Z,8.85
2019-04-25T01:45:38.093Z,9.63
2019-04-25T01:48:07.957Z,8.83
2019-04-25T01:50:38.145Z,9.20
2019-04-25T01:53:07.772Z,9.78
2019-04-25T01:55:37.494Z,9.35
2019-04-25T01:58:07.131Z,10.23
2019-04-25T02:00:38.502Z,9.95
2019-04-25T02:03:08.294Z,9.55
2019-04-25T02:05:38.099Z,8.95
2019-04-25T02:08:07.735Z,11.93
2019-04-25T02:10:37.401Z,8.65
2019-04-25T02:13:08.669Z,9.45
2019-04-25T02:15:38.402Z,9.43
2019-04-25T02:18:08.877Z,9.93
2019-04-25T02:20:38.605Z,9.63
2019-04-25T02:23:08.225Z,9.25
2019-04-25T02:25:38.167Z,9.58
2019-04-25T02:28:07.785Z,9.75
2019-04-25T02:30:37.692Z,9.53
2019-04-25T02:33:09.253Z,10.35
2019-04-25T02:35:42.772Z,8.50
2019-04-25T02:38:10.309Z,11.08
2019-04-25T02:40:40.162Z,10.48
2019-04-25T02:43:10.346Z,9.88
2019-04-25T02:45:47.589Z,9.38
2019-04-25T02:48:36.819Z,9.45
2019-04-25T02:51:17.265Z,8.80
2019-04-25T02:53:59.816Z,9.93
2019-04-25T02:56:34.265Z,10.28
2019-04-25T02:59:00.777Z,10.68
2019-04-25T03:01:30.617Z,10.00
2019-04-25T03:04:00.959Z,9.65
2019-04-25T03:06:30.757Z,9.00
2019-04-25T03:09:01.662Z,9.15
2019-04-25T03:11:31.608Z,10.80
2019-04-25T03:14:02.093Z,9.73
2019-04-25T03:16:31.817Z,10.65
2019-04-25T03:19:14.906Z,11.35
2019-04-25T03:21:49.138Z,10.48
2019-04-25T03:24:18.812Z,10.53
2019-04-25T03:26:48.553Z,10.72
2019-04-25T03:29:18.213Z,11.55
2019-04-25T03:31:47.912Z,11.93
2019-04-25T03:34:20.560Z,11.97
2019-04-25T03:36:48.902Z,11.30
2019-04-25T03:39:18.562Z,12.33
2019-04-25T03:41:48.191Z,11.73
2019-04-25T03:44:17.842Z,12.43
2019-04-25T03:46:47.464Z,12.60
2019-04-25T03:49:17.115Z,13.85
2019-04-25T03:51:46.735Z,14.55
2019-04-25T03:54:16.392Z,14.85
2019-04-25T03:56:53.629Z,16.75
2019-04-25T03:59:17.364Z,16.27
2019-04-25T04:01:46.984Z,14.80
2019-04-25T04:04:16.659Z,16.70
2019-04-25T04:06:46.302Z,30.05
2019-04-25T04:09:15.956Z,17.60
2019-04-25T04:11:45.589Z,16.00
2019-04-25T04:14:15.763Z,15.18
2019-04-25T04:16:47.101Z,15.00
2019-04-25T04:19:16.757Z,14.43
2019-04-25T04:21:48.026Z,14.05
2019-04-25T04:24:19.328Z,15.65
2019-04-25T04:27:01.597Z,15.20
2019-04-25T04:29:25.084Z,15.30
2019-04-25T04:31:54.407Z,15.53
2019-04-25T04:34:24.128Z,15.05
2019-04-25T04:36:53.802Z,15.63
2019-04-25T04:39:23.601Z,20.10
2019-04-25T04:41:53.551Z,18.05
2019-04-25T04:44:24.607Z,18.75
2019-04-25T04:46:54.254Z,19.32
2019-04-25T04:49:23.913Z,30.17
2019-04-25T04:51:54.134Z,26.50
2019-04-25T04:54:23.910Z,19.12
2019-04-25T04:56:53.920Z,16.65
2019-04-25T04:59:24.842Z,15.38
2019-04-25T05:01:56.150Z,12.98
2019-04-25T05:04:27.433Z,12.03
2019-04-25T05:07:04.666Z,12.33
2019-04-25T05:09:35.388Z,10.88
2019-04-25T05:12:06.776Z,14.23
2019-04-25T05:14:36.515Z,11.65
2019-04-25T05:17:10.247Z,10.28
2019-04-25T05:19:40.136Z,10.40
2019-04-25T05:22:10.243Z,10.08
2019-04-25T05:24:40.070Z,10.45
2019-04-25T05:27:10.197Z,10.80
2019-04-25T05:29:39.826Z,9.75
2019-04-25T05:32:09.515Z,11.22
2019-04-25T05:34:39.142Z,11.50
2019-04-25T05:37:09.565Z,9.70
2019-04-25T05:39:39.194Z,9.98
2019-04-25T05:42:10.962Z,10.58
2019-04-25T05:44:41.800Z,12.43
2019-04-25T05:47:11.573Z,12.95
2019-04-25T05:49:41.837Z,10.75
2019-04-25T05:52:13.885Z,11.20
2019-04-25T05:54:44.348Z,10.72
2019-04-25T05:57:14.032Z,10.85
2019-04-25T05:59:43.733Z,8.95
2019-04-25T06:02:13.951Z,10.25
2019-04-25T06:04:43.766Z,9.83
2019-04-25T06:07:14.465Z,10.00
2019-04-25T06:09:46.179Z,10.90
2019-04-25T06:12:20.419Z,10.13
2019-04-25T06:14:50.080Z,10.03
2019-04-25T06:17:30.133Z,10.90
2019-04-25T06:20:04.353Z,10.20
2019-04-25T06:22:49.499Z,9.70
2019-04-25T06:25:21.836Z,10.32
2019-04-25T06:27:57.224Z,9.53
2019-04-25T06:30:27.236Z,9.20
2019-04-25T06:32:56.865Z,9.23
2019-04-25T06:35:27.554Z,9.73
2019-04-25T06:37:57.247Z,9.23
2019-04-25T06:40:29.735Z,9.40
2019-04-25T06:42:58.579Z,9.73
2019-04-25T06:45:46.446Z,9.58
2019-04-25T06:48:17.705Z,8.58
2019-04-25T06:50:47.365Z,9.30
2019-04-25T06:53:16.985Z,8.88
2019-04-25T06:55:46.651Z,12.10
2019-04-25T06:58:16.275Z,9.20
2019-04-25T07:00:58.093Z,9.10
2019-04-25T07:03:17.461Z,9.10
2019-04-25T07:05:47.118Z,9.08
2019-04-25T07:08:16.740Z,8.63
2019-04-25T07:10:46.397Z,8.08
2019-04-25T07:13:16.023Z,10.35
2019-04-25T07:15:45.879Z,8.33
2019-04-25T07:18:15.563Z,7.90
2019-04-25T07:20:45.448Z,8.45
2019-04-25T07:23:15.025Z,8.18
2019-04-25T07:25:46.321Z,9.00
2019-04-25T07:28:31.126Z,8.88
2019-04-25T07:31:03.598Z,8.23
2019-04-25T07:33:35.864Z,8.98
2019-04-25T07:36:05.598Z,9.83
2019-04-25T07:38:35.219Z,8.33
2019-04-25T07:41:05.209Z,8.35
2019-04-25T07:43:35.443Z,8.55
2019-04-25T07:46:06.237Z,8.90
2019-04-25T07:48:37.139Z,8.40
2019-04-25T07:51:07.276Z,7.95
2019-04-25T07:53:37.571Z,8.63
2019-04-25T07:56:07.238Z,8.40
2019-04-25T07:58:49.367Z,8.18
2019-04-25T08:01:14.084Z,7.83
2019-04-25T08:03:53.870Z,8.18
2019-04-25T08:06:25.809Z,8.08
2019-04-25T08:08:55.507Z,9.53
2019-04-25T08:11:25.125Z,8.00
2019-04-25T08:14:11.094Z,7.87
2019-04-25T08:16:44.201Z,7.22
2019-04-25T08:19:15.350Z,8.33
2019-04-25T08:21:45.352Z,9.08
2019-04-25T08:24:15.558Z,8.00
2019-04-25T08:26:45.184Z,7.58
2019-04-25T08:29:16.773Z,10.20
2019-04-25T08:31:46.570Z,8.90
2019-04-25T08:34:16.219Z,9.00
2019-04-25T08:36:45.850Z,7.83
2019-04-25T08:39:15.515Z,8.85
2019-04-25T08:41:45.722Z,8.00
2019-04-25T08:44:15.570Z,7.42
2019-04-25T08:46:48.559Z,8.03
2019-04-25T08:49:26.643Z,7.87
2019-04-25T08:51:57.543Z,9.03
2019-04-25T08:54:41.104Z,8.98
2019-04-25T08:57:10.469Z,8.23
2019-04-25T08:59:56.313Z,7.45
2019-04-25T09:02:36.112Z,7.47
2019-04-25T09:05:18.891Z,9.08
2019-04-25T09:07:48.518Z,8.08
2019-04-25T09:10:18.238Z,8.13
2019-04-25T09:12:47.875Z,8.33
2019-04-25T09:15:17.708Z,8.60
2019-04-25T09:17:47.333Z,8.90
2019-04-25T09:20:17.631Z,7.70
2019-04-25T09:22:47.271Z,9.05
2019-04-25T09:25:17.341Z,9.03
2019-04-25T09:27:47.093Z,8.58
2019-04-25T09:30:17.008Z,9.00
2019-04-25T09:32:47.847Z,9.30
2019-04-25T09:35:20.105Z,8.28
2019-04-25T09:37:49.104Z,10.32
2019-04-25T09:40:18.863Z,9.30
2019-04-25T09:42:48.513Z,7.70
2019-04-25T09:45:30.619Z,9.90
2019-04-25T09:48:17.064Z,10.53
2019-04-25T09:50:48.351Z,8.98
2019-04-25T09:53:23.167Z,8.68
2019-04-25T09:56:00.603Z,8.73
2019-04-25T09:58:48.555Z,8.48
2019-04-25T10:01:19.190Z,8.95
2019-04-25T10:03:48.850Z,8.30
2019-04-25T10:06:19.136Z,7.95
2019-04-25T10:08:48.858Z,8.60
2019-04-25T10:11:18.620Z,8.93
2019-04-25T10:13:54.393Z,8.45
2019-04-25T10:16:24.108Z,9.60
2019-04-25T10:18:53.763Z,8.53
2019-04-25T10:21:24.018Z,8.68
2019-04-25T10:23:53.693Z,9.93
2019-04-25T10:26:23.637Z,8.23
2019-04-25T10:28:56.010Z,8.90
2019-04-25T10:31:25.721Z,8.95
2019-04-25T10:33:55.439Z,9.10
2019-04-25T10:36:25.139Z,8.90
2019-04-25T10:39:07.519Z,8.45
2019-04-25T10:41:26.118Z,7.92
2019-04-25T10:43:56.195Z,9.13
2019-04-25T10:46:25.872Z,9.13
2019-04-25T10:48:56.148Z,8.68
2019-04-25T10:51:26.025Z,8.25
2019-04-25T10:53:55.857Z,7.80
2019-04-25T10:56:25.468Z,8.83
2019-04-25T10:58:55.150Z,8.08
2019-04-25T11:01:24.767Z,7.87
2019-04-25T11:03:56.359Z,8.03
2019-04-25T11:06:27.655Z,7.83
2019-04-25T11:08:57.314Z,9.10
2019-04-25T11:11:27.098Z,9.00
2019-04-25T11:13:58.158Z,7.50
2019-04-25T11:16:27.882Z,8.28
2019-04-25T11:18:57.512Z,8.43
2019-04-25T11:21:27.168Z,9.08
2019-04-25T11:23:56.794Z,8.65
2019-04-25T11:26:26.890Z,8.10
2019-04-25T11:28:56.614Z,8.50
2019-04-25T11:31:27.900Z,8.80
2019-04-25T11:33:57.529Z,8.05
2019-04-25T11:36:27.184Z,8.85
2019-04-25T11:38:58.445Z,53.73
2019-04-25T11:41:28.106Z,10.35
2019-04-25T11:44:00.367Z,7.60
2019-04-25T11:46:29.099Z,10.00
2019-04-25T11:48:58.795Z,7.67
2019-04-25T11:51:28.454Z,8.30
2019-04-25T11:53:58.083Z,8.48
2019-04-25T11:56:28.068Z,8.83
2019-04-25T11:58:57.695Z,9.78
2019-04-25T12:01:27.519Z,8.30
2019-04-25T12:03:57.215Z,8.28
2019-04-25T12:06:26.863Z,8.60
2019-04-25T12:08:56.524Z,17.75
2019-04-25T12:11:26.191Z,10.18
2019-04-25T12:13:55.862Z,8.78
2019-04-25T12:16:25.551Z,7.75
2019-04-25T12:18:56.447Z,8.95
2019-04-25T12:21:26.122Z,8.95
2019-04-25T12:23:55.780Z,7.95
2019-04-25T12:26:26.264Z,8.18
2019-04-25T12:28:56.569Z,8.60
2019-04-25T12:31:26.546Z,8.93
2019-04-25T12:33:57.445Z,8.58
2019-04-25T12:36:27.365Z,8.70
2019-04-25T12:38:57.030Z,9.13
2019-04-25T12:41:26.650Z,8.23
2019-04-25T12:43:58.008Z,8.55
2019-04-25T12:46:29.279Z,8.55
2019-04-25T12:48:58.938Z,7.97
2019-04-25T12:51:28.558Z,8.13
2019-04-25T12:53:58.221Z,8.68
2019-04-25T12:56:27.846Z,7.53
2019-04-25T12:58:57.496Z,7.45
2019-04-25T13:01:27.122Z,8.00
2019-04-25T13:03:56.772Z,7.47
2019-04-25T13:06:26.398Z,7.37
2019-04-25T13:08:56.054Z,8.33
2019-04-25T13:11:25.682Z,7.65
2019-04-25T13:13:55.341Z,7.28
2019-04-25T13:16:24.966Z,7.75
2019-04-25T13:18:55.581Z,7.08
2019-04-25T13:21:25.230Z,7.33
2019-04-25T13:23:55.719Z,6.80
2019-04-25T13:26:27.873Z,8.90
2019-04-25T13:29:15.353Z,20.37
2019-04-25T13:31:58.945Z,7.08
2019-04-25T13:34:36.407Z,7.17
2019-04-25T13:37:06.251Z,6.72
2019-04-25T13:39:35.989Z,6.45
2019-04-25T13:42:06.830Z,8.30
2019-04-25T13:44:36.741Z,6.15
2019-04-25T13:47:07.005Z,6.35
2019-04-25T13:49:37.208Z,7.15
2019-04-25T13:52:08.474Z,7.80
2019-04-25T13:54:38.145Z,6.03
2019-04-25T13:57:08.039Z,5.92
2019-04-25T13:59:37.703Z,7.28
2019-04-25T14:02:07.730Z,6.03
2019-04-25T14:04:37.400Z,8.18
2019-04-25T14:07:07.057Z,6.35
2019-04-25T14:09:36.689Z,6.10
2019-04-25T14:12:06.603Z,6.20
2019-04-25T14:14:36.930Z,7.12
2019-04-25T14:17:24.782Z,5.72
2019-04-25T14:20:04.905Z,11.33
2019-04-25T14:22:34.625Z,6.17
2019-04-25T14:25:05.898Z,6.08
2019-04-25T14:27:35.627Z,6.25
2019-04-25T14:30:09.238Z,5.67
2019-04-25T14:32:38.996Z,5.83
2019-04-25T14:35:08.872Z,5.78
2019-04-25T14:37:39.741Z,5.87
2019-04-25T14:40:10.149Z,10.08
2019-04-25T14:42:39.804Z,6.00
2019-04-25T14:45:09.929Z,5.85
2019-04-25T14:47:39.933Z,5.80
2019-04-25T14:50:09.791Z,7.25
2019-04-25T14:52:40.761Z,6.35
2019-04-25T14:55:15.134Z,6.00
2019-04-25T14:57:44.785Z,6.42
2019-04-25T15:00:32.551Z,6.30
2019-04-25T15:03:02.238Z,5.53
2019-04-25T15:05:31.859Z,5.20
2019-04-25T15:08:01.529Z,5.37
2019-04-25T15:10:31.156Z,5.60
2019-04-25T15:13:00.817Z,5.40
2019-04-25T15:15:30.434Z,5.83
2019-04-25T15:18:00.089Z,5.90
2019-04-25T15:20:30.183Z,5.55
2019-04-25T15:22:59.839Z,5.37
2019-04-25T15:25:29.703Z,5.08
2019-04-25T15:27:59.399Z,5.37
2019-04-25T15:30:30.673Z,5.37
2019-04-25T15:33:00.321Z,5.22
2019-04-25T15:35:34.583Z,5.33
2019-04-25T15:38:06.119Z,5.40
2019-04-25T15:40:44.111Z,5.42
2019-04-25T15:43:15.666Z,5.15
2019-04-25T15:45:46.930Z,6.65
2019-04-25T15:48:16.587Z,5.80
2019-04-25T15:50:46.215Z,4.97
2019-04-25T15:53:15.861Z,5.28
2019-04-25T15:55:45.670Z,5.80
2019-04-25T15:58:15.300Z,5.70
2019-04-25T16:00:45.025Z,8.05
2019-04-25T16:03:14.956Z,5.58
2019-04-25T16:05:44.613Z,6.08
2019-04-25T16:08:14.332Z,10.35
2019-04-25T16:10:44.161Z,6.00
2019-04-25T16:13:13.811Z,4.47
2019-04-25T16:15:43.793Z,9.78
2019-04-25T16:18:14.112Z,4.97
2019-04-25T16:20:44.267Z,4.92
2019-04-25T16:23:14.158Z,5.87
2019-04-25T16:25:44.166Z,7.70
2019-04-25T16:28:14.452Z,5.33
2019-04-25T16:30:44.442Z,4.95
2019-04-25T16:33:14.048Z,4.78
2019-04-25T16:35:43.708Z,6.35
2019-04-25T16:38:14.410Z,5.65
2019-04-25T16:40:44.186Z,5.92
2019-04-25T16:43:15.659Z,11.30
2019-04-25T16:45:45.482Z,6.05
2019-04-25T16:48:15.875Z,5.83
2019-04-25T16:50:45.629Z,5.20
2019-04-25T16:53:16.697Z,6.30
2019-04-25T16:55:46.935Z,5.65
2019-04-25T16:58:16.848Z,6.75
2019-04-25T17:00:51.449Z,5.40
2019-04-25T17:03:22.143Z,5.80
2019-04-25T17:05:51.912Z,18.65
2019-04-25T17:08:21.603Z,6.37
2019-04-25T17:10:51.342Z,6.05
2019-04-25T17:13:21.054Z,6.05
2019-04-25T17:15:55.036Z,6.47
2019-04-25T17:18:32.000Z,6.03
2019-04-25T17:21:06.272Z,9.58
2019-04-25T17:23:37.008Z,6.10
2019-04-25T17:26:07.089Z,6.20
2019-04-25T17:28:39.158Z,6.85
2019-04-25T17:31:15.953Z,8.18
2019-04-25T17:34:03.253Z,6.83
2019-04-25T17:36:35.752Z,14.28
2019-04-25T17:39:08.493Z,11.75
2019-04-25T17:41:38.429Z,20.88
2019-04-25T17:44:08.073Z,15.38
2019-04-25T17:46:37.741Z,8.33
2019-04-25T17:49:07.370Z,9.18
2019-04-25T17:51:37.039Z,10.78
2019-04-25T17:54:06.667Z,10.18
2019-04-25T17:56:36.433Z,9.75
2019-04-25T17:59:06.055Z,8.38
2019-04-25T18:01:35.995Z,7.92
2019-04-25T18:04:05.905Z,8.95
2019-04-25T18:06:35.691Z,7.05
2019-04-25T18:09:07.302Z,6.12
2019-04-25T18:11:38.025Z,6.42
2019-04-25T18:14:07.760Z,8.38
2019-04-25T18:16:40.329Z,7.85
2019-04-25T18:19:17.955Z,12.05
2019-04-25T18:21:47.577Z,13.58
2019-04-25T18:24:18.882Z,23.35
2019-04-25T18:26:50.203Z,23.80
2019-04-25T18:29:21.518Z,32.53
2019-04-25T18:31:51.154Z,32.25
2019-04-25T18:34:22.468Z,35.80
2019-04-25T18:36:56.757Z,38.23
2019-04-25T18:39:44.320Z,38.20
2019-04-25T18:42:18.743Z,34.83
2019-04-25T18:44:49.945Z,32.48
2019-04-25T18:47:19.584Z,30.23
2019-04-25T18:49:49.247Z,31.57
2019-04-25T18:52:32.280Z,30.70
2019-04-25T18:55:03.599Z,26.52
2019-04-25T18:57:45.191Z,26.80
2019-04-25T19:00:29.084Z,28.52
2019-04-25T19:03:22.666Z,28.85
2019-04-25T19:05:52.629Z,33.23
2019-04-25T19:08:22.260Z,36.77
2019-04-25T19:10:51.971Z,34.98
2019-04-25T19:13:21.563Z,33.42
2019-04-25T19:15:51.548Z,30.90
2019-04-25T19:18:21.155Z,27.37
2019-04-25T19:20:50.817Z,25.32
2019-04-25T19:23:20.458Z,24.45
2019-04-25T19:25:50.175Z,29.65
2019-04-25T19:28:19.797Z,24.82
2019-04-25T19:30:49.672Z,23.25
2019-04-25T19:33:19.303Z,25.12
2019-04-25T19:35:51.933Z,23.70
2019-04-25T19:38:21.649Z,25.35
2019-04-25T19:40:55.868Z,24.67
2019-04-25T19:43:27.779Z,26.35
2019-04-25T19:45:57.414Z,27.65
2019-04-25T19:48:28.530Z,30.17
2019-04-25T19:50:58.169Z,31.10
2019-04-25T19:53:27.848Z,30.05
2019-04-25T19:55:57.486Z,30.88
2019-04-25T19:58:27.169Z,29.52
2019-04-25T20:00:56.808Z,29.45
2019-04-25T20:03:28.109Z,29.63
2019-04-25T20:05:59.372Z,29.65
2019-04-25T20:08:39.472Z,29.07
2019-04-25T20:11:13.826Z,28.10
2019-04-25T20:13:44.385Z,26.68
2019-04-25T20:16:14.931Z,26.27
2019-04-25T20:18:45.612Z,26.00
2019-04-25T20:21:15.307Z,27.13
2019-04-25T20:23:46.360Z,23.87
2019-04-25T20:26:16.383Z,22.45
2019-04-25T20:28:46.222Z,21.55
2019-04-25T20:31:16.104Z,22.50
2019-04-25T20:33:46.816Z,34.40
2019-04-25T20:36:17.923Z,25.37
2019-04-25T20:38:47.828Z,25.20
2019-04-25T20:41:17.558Z,24.00
2019-04-25T20:43:48.805Z,23.85
2019-04-25T20:46:18.541Z,24.63
2019-04-25T20:48:50.175Z,23.07
2019-04-25T20:51:19.801Z,22.70
2019-04-25T20:53:49.434Z,23.77
2019-04-25T20:56:19.100Z,27.22
2019-04-25T20:58:49.113Z,21.85
2019-04-25T21:01:18.767Z,23.70
2019-04-25T21:03:48.616Z,25.12
2019-04-25T21:06:19.981Z,23.35
2019-04-25T21:08:50.110Z,24.40
2019-04-25T21:11:20.067Z,24.57
2019-04-25T21:14:03.149Z,23.07
2019-04-25T21:16:34.532Z,22.73
2019-04-25T21:19:11.312Z,24.05
2019-04-25T21:21:41.047Z,23.35
2019-04-25T21:24:10.678Z,24.35
2019-04-25T21:26:40.344Z,23.70
2019-04-25T21:29:10.052Z,23.83
2019-04-25T21:31:39.784Z,22.85
2019-04-25T21:34:09.419Z,23.30
2019-04-25T21:36:39.350Z,22.82
2019-04-25T21:39:10.620Z,22.25
2019-04-25T21:41:45.540Z,24.02
2019-04-25T21:44:17.673Z,23.40
2019-04-25T21:46:46.801Z,22.00
2019-04-25T21:49:16.604Z,22.93
2019-04-25T21:51:46.301Z,22.95
2019-04-25T21:54:16.123Z,22.25
2019-04-25T21:56:46.281Z,21.93
2019-04-25T21:59:16.116Z,22.17
2019-04-25T22:01:46.453Z,22.00
2019-04-25T22:04:16.185Z,21.77
2019-04-25T22:06:46.266Z,21.50
2019-04-25T22:09:22.886Z,21.40
2019-04-25T22:11:53.063Z,20.88
2019-04-25T22:14:23.014Z,21.85
2019-04-25T22:16:52.828Z,21.62
2019-04-25T22:19:22.762Z,20.97
2019-04-25T22:21:52.680Z,19.20
2019-04-25T22:24:22.511Z,20.80
2019-04-25T22:26:54.089Z,20.75
2019-04-25T22:29:23.945Z,19.10
2019-04-25T22:32:01.532Z,20.75
2019-04-25T22:34:51.321Z,21.17
2019-04-25T22:37:10.373Z,19.48
2019-04-25T22:39:40.313Z,19.82
2019-04-25T22:42:09.946Z,20.65
2019-04-25T22:44:40.349Z,19.57
2019-04-25T22:47:10.021Z,19.40
2019-04-25T22:49:39.665Z,19.17
2019-04-25T22:52:09.576Z,19.02
2019-04-25T22:54:39.413Z,20.02
2019-04-25T22:57:09.049Z,19.87
2019-04-25T22:59:38.895Z,19.50
2019-04-25T23:02:22.309Z,20.23
2019-04-25T23:05:04.731Z,18.92
2019-04-25T23:07:25.315Z,19.23
2019-04-25T23:09:55.360Z,19.57
2019-04-25T23:12:25.278Z,19.77
2019-04-25T23:14:55.050Z,20.88
2019-04-25T23:17:24.685Z,20.12
2019-04-25T23:19:54.631Z,19.87
2019-04-25T23:22:24.361Z,20.20
2019-04-25T23:25:01.754Z,20.85
2019-04-25T23:27:39.165Z,20.52
2019-04-25T23:30:10.694Z,19.15
2019-04-25T23:32:41.020Z,19.98
2019-04-25T23:35:24.335Z,19.50
2019-04-25T23:37:42.076Z,18.20
2019-04-25T23:40:13.648Z,19.15
2019-04-25T23:42:43.326Z,18.17
2019-04-25T23:45:14.606Z,18.40
2019-04-25T23:47:44.323Z,19.60
2019-04-25T23:50:14.842Z,18.50
2019-04-25T23:52:44.504Z,18.77
2019-04-25T23:55:15.196Z,19.23
2019-04-25T23:57:44.851Z,18.67
